Time;durP1;ratioP1;P1;durP2;ratioP2;P2;SDS_P1;SDS_P2;PMS_P1;PMS_P2;Temp;Humidity;BMP_temperature;BMP_pressure;BME280_temperature;BME280_humidity;BME280_pressure;Samples;Min_cycle;Max_cycle;Signal;HPM_P1;HPM_P2
2022/08/04 00:00:48;;;;;;;1.83;1.50;;;;;;;;;;5126608;28;20055;-56
2022/08/04 00:03:23;;;;;;;2.80;1.40;;;;;;;;;;5126103;28;20039;-55
2022/08/04 00:06:10;;;;;;;3.28;1.73;;;;;;;;;;5125429;28;20074;-56
2022/08/04 00:08:35;;;;;;;2.88;1.50;;;;;;;;;;5126453;28;20047;-57
2022/08/04 00:11:01;;;;;;;2.95;1.77;;;;;;;;;;5125398;28;20362;-56
2022/08/04 00:13:29;;;;;;;2.60;2.08;;;;;;;;;;5125419;28;20043;-57
2022/08/04 00:15:58;;;;;;;5.05;1.73;;;;;;;;;;5107531;28;20498;-57
2022/08/04 00:18:30;;;;;;;6.70;1.92;;;;;;;;;;5123985;28;20043;-56
2022/08/04 00:20:58;;;;;;;5.75;2.13;;;;;;;;;;5124424;28;20047;-56
2022/08/04 00:23:25;;;;;;;2.92;1.95;;;;;;;;;;5125688;28;20130;-57
2022/08/04 00:25:51;;;;;;;4.55;2.53;;;;;;;;;;5125785;28;20077;-55
2022/08/04 00:28:16;;;;;;;2.00;1.60;;;;;;;;;;5125614;28;20066;-56
2022/08/04 00:30:42;;;;;;;1.98;1.50;;;;;;;;;;5125853;28;20043;-57
2022/08/04 00:33:07;;;;;;;2.85;1.98;;;;;;;;;;5125803;28;20430;-56
2022/08/04 00:35:33;;;;;;;2.58;1.73;;;;;;;;;;5124781;28;20047;-56
2022/08/04 00:37:58;;;;;;;2.28;1.65;;;;;;;;;;5126117;28;20036;-57
2022/08/04 00:40:30;;;;;;;4.78;2.47;;;;;;;;;;5123050;28;20054;-54
2022/08/04 00:43:07;;;;;;;3.10;2.05;;;;;;;;;;5126268;28;20495;-56
2022/08/04 00:45:33;;;;;;;3.10;1.90;;;;;;;;;;5125615;28;20131;-57
2022/08/04 00:48:17;;;;;;;5.07;2.53;;;;;;;;;;5125751;28;20655;-56
2022/08/04 00:50:42;;;;;;;2.85;1.73;;;;;;;;;;5126949;27;20047;-56
2022/08/04 00:53:08;;;;;;;5.25;2.25;;;;;;;;;;5130012;28;20047;-56
2022/08/04 00:55:45;;;;;;;2.40;1.83;;;;;;;;;;5129256;28;20100;-56
2022/08/04 00:58:20;;;;;;;5.93;1.88;;;;;;;;;;5125494;28;20043;-57
2022/08/04 01:01:04;;;;;;;3.90;1.95;;;;;;;;;;5127746;28;20091;-57
2022/08/04 01:03:48;;;;;;;3.47;1.50;;;;;;;;;;5127268;28;20039;-54
2022/08/04 01:06:45;;;;;;;2.97;2.05;;;;;;;;;;5128381;28;20071;-54
2022/08/04 01:09:20;;;;;;;2.53;1.65;;;;;;;;;;5072291;28;20043;-55
2022/08/04 01:12:03;;;;;;;2.55;1.40;;;;;;;;;;5127126;28;20095;-56
2022/08/04 01:14:47;;;;;;;2.33;2.03;;;;;;;;;;5129798;28;20031;-54
2022/08/04 01:17:23;;;;;;;2.78;1.67;;;;;;;;;;5126056;28;20054;-55
2022/08/04 01:20:07;;;;;;;1.75;1.08;;;;;;;;;;5126033;28;20137;-56
2022/08/04 01:22:32;;;;;;;1.67;1.10;;;;;;;;;;5128301;28;20047;-55
2022/08/04 01:25:00;;;;;;;3.95;1.80;;;;;;;;;;5128186;28;20043;-53
2022/08/04 01:27:32;;;;;;;2.13;1.58;;;;;;;;;;5127410;28;20054;-55
2022/08/04 01:29:58;;;;;;;9.65;2.13;;;;;;;;;;5128639;28;20078;-56
2022/08/04 01:32:23;;;;;;;1.98;1.40;;;;;;;;;;5127927;28;20035;-53
2022/08/04 01:34:51;;;;;;;2.22;1.95;;;;;;;;;;5127816;28;20151;-55
2022/08/04 01:37:16;;;;;;;2.28;1.58;;;;;;;;;;5129100;28;20035;-56
2022/08/04 01:39:49;;;;;;;2.25;1.67;;;;;;;;;;5129184;28;20050;-52
2022/08/04 01:42:16;;;;;;;2.13;1.40;;;;;;;;;;5126983;28;20043;-55
2022/08/04 01:44:42;;;;;;;1.88;1.40;;;;;;;;;;5128347;28;20043;-55
2022/08/04 01:47:08;;;;;;;1.15;0.82;;;;;;;;;;5129022;28;20045;-55
2022/08/04 01:49:34;;;;;;;3.05;1.73;;;;;;;;;;5127786;28;20138;-56
2022/08/04 01:52:01;;;;;;;2.22;1.58;;;;;;;;;;5125804;28;20769;-56
2022/08/04 01:54:27;;;;;;;2.58;1.50;;;;;;;;;;5126773;28;20096;-56
2022/08/04 01:56:54;;;;;;;3.58;2.15;;;;;;;;;;5126328;28;20112;-57
2022/08/04 01:59:21;;;;;;;2.15;1.63;;;;;;;;;;5128261;28;20059;-56
2022/08/04 02:01:47;;;;;;;3.65;1.45;;;;;;;;;;5126048;27;20047;-56
2022/08/04 02:04:16;;;;;;;3.30;1.83;;;;;;;;;;5127072;28;20039;-56
2022/08/04 02:06:41;;;;;;;2.65;2.08;;;;;;;;;;5128359;28;20065;-56
2022/08/04 02:09:13;;;;;;;1.88;1.60;;;;;;;;;;5126320;28;20039;-57
2022/08/04 02:11:39;;;;;;;4.63;1.67;;;;;;;;;;5127762;28;20047;-57
2022/08/04 02:14:41;;;;;;;2.55;1.73;;;;;;;;;;5127017;28;20050;-56
2022/08/04 02:17:11;;;;;;;4.55;2.40;;;;;;;;;;5095511;28;20636;-56
2022/08/04 02:19:55;;;;;;;2.70;1.77;;;;;;;;;;5127547;28;20521;-57
2022/08/04 02:22:21;;;;;;;9.63;2.15;;;;;;;;;;5127619;28;20043;-56
2022/08/04 02:24:51;;;;;;;1.40;0.93;;;;;;;;;;5127314;28;20456;-56
2022/08/04 02:27:20;;;;;;;6.40;2.50;;;;;;;;;;5127153;27;20054;-56
2022/08/04 02:29:52;;;;;;;1.85;1.67;;;;;;;;;;5125662;28;20042;-54
2022/08/04 02:32:25;;;;;;;2.33;1.83;;;;;;;;;;5127894;28;20498;-54
2022/08/04 02:34:55;;;;;;;3.05;1.90;;;;;;;;;;5126367;28;20043;-55
2022/08/04 02:37:23;;;;;;;6.22;2.40;;;;;;;;;;5127417;28;20509;-57
2022/08/04 02:39:51;;;;;;;4.20;2.38;;;;;;;;;;5126007;28;20047;-56
2022/08/04 02:42:17;;;;;;;6.75;2.85;;;;;;;;;;5127819;28;20039;-56
2022/08/04 02:44:47;;;;;;;1.77;1.52;;;;;;;;;;5127123;28;20067;-57
2022/08/04 02:47:13;;;;;;;1.90;1.63;;;;;;;;;;5126716;28;20088;-57
2022/08/04 02:49:40;;;;;;;2.40;2.03;;;;;;;;;;5122381;28;20062;-56
2022/08/04 02:52:06;;;;;;;1.40;1.27;;;;;;;;;;5125963;28;20078;-56
2022/08/04 02:54:33;;;;;;;4.05;2.25;;;;;;;;;;5126949;28;20086;-55
2022/08/04 02:56:59;;;;;;;2.90;1.98;;;;;;;;;;5126149;28;20536;-57
2022/08/04 02:59:25;;;;;;;1.88;1.20;;;;;;;;;;5124926;28;20055;-57
2022/08/04 03:01:53;;;;;;;2.53;1.77;;;;;;;;;;5127827;28;20035;-57
2022/08/04 03:04:31;;;;;;;2.20;1.80;;;;;;;;;;5127318;28;20050;-57
2022/08/04 03:07:15;;;;;;;1.40;1.08;;;;;;;;;;5127139;28;20725;-57
2022/08/04 03:09:46;;;;;;;3.50;1.92;;;;;;;;;;5127517;28;20089;-55
2022/08/04 03:12:12;;;;;;;2.63;1.52;;;;;;;;;;5125261;28;20051;-57
2022/08/04 03:14:46;;;;;;;3.45;1.65;;;;;;;;;;5127097;27;20035;-57
2022/08/04 03:17:17;;;;;;;3.22;1.85;;;;;;;;;;5126353;28;20047;-55
2022/08/04 03:19:49;;;;;;;2.88;1.48;;;;;;;;;;5126351;28;20482;-54
2022/08/04 03:22:14;;;;;;;2.08;1.85;;;;;;;;;;5126474;28;20043;-55
2022/08/04 03:24:57;;;;;;;7.20;1.98;;;;;;;;;;5124335;28;20043;-54
2022/08/04 03:27:28;;;;;;;2.97;1.92;;;;;;;;;;5122190;28;20027;-55
2022/08/04 03:29:54;;;;;;;2.65;2.20;;;;;;;;;;5125494;28;20145;-54
2022/08/04 03:32:22;;;;;;;2.58;2.08;;;;;;;;;;5127320;28;20175;-54
2022/08/04 03:34:57;;;;;;;3.08;2.10;;;;;;;;;;5126142;28;20515;-57
2022/08/04 03:37:41;;;;;;;4.03;2.13;;;;;;;;;;5125883;28;20441;-57
2022/08/04 03:40:06;;;;;;;2.30;1.80;;;;;;;;;;5126129;28;20055;-57
2022/08/04 03:42:31;;;;;;;1.67;1.38;;;;;;;;;;5126055;28;20061;-58
2022/08/04 03:45:15;;;;;;;5.30;2.03;;;;;;;;;;5124873;28;20046;-56
2022/08/04 03:47:58;;;;;;;3.28;1.77;;;;;;;;;;5124784;28;20047;-56
2022/08/04 03:50:33;;;;;;;3.53;2.22;;;;;;;;;;5123748;28;20052;-58
2022/08/04 03:53:09;;;;;;;1.77;1.20;;;;;;;;;;5124550;28;20043;-56
2022/08/04 03:55:43;;;;;;;1.92;1.70;;;;;;;;;;5124741;28;20050;-57
2022/08/04 03:58:27;;;;;;;1.48;1.27;;;;;;;;;;5126941;28;20502;-56
2022/08/04 04:01:11;;;;;;;3.47;2.03;;;;;;;;;;5123367;28;20060;-58
2022/08/04 04:03:36;;;;;;;1.90;1.40;;;;;;;;;;5125595;28;20087;-56
2022/08/04 04:06:02;;;;;;;3.20;1.85;;;;;;;;;;5125776;28;20039;-57
2022/08/04 04:08:41;;;;;;;2.80;1.77;;;;;;;;;;5123262;28;20066;-58
2022/08/04 04:11:25;;;;;;;1.42;1.10;;;;;;;;;;5126412;28;20054;-58
2022/08/04 04:14:09;;;;;;;5.10;1.48;;;;;;;;;;5123653;28;20039;-58
2022/08/04 04:16:45;;;;;;;5.95;2.00;;;;;;;;;;5122768;28;20112;-56
2022/08/04 04:19:28;;;;;;;3.40;2.50;;;;;;;;;;5124507;28;20156;-58
2022/08/04 04:22:13;;;;;;;1.88;1.60;;;;;;;;;;5124006;28;20074;-57
2022/08/04 04:24:53;;;;;;;3.08;2.00;;;;;;;;;;5120422;27;20039;-58
2022/08/04 04:27:33;;;;;;;3.00;1.73;;;;;;;;;;5124663;28;20133;-57
2022/08/04 04:30:17;;;;;;;2.77;1.83;;;;;;;;;;5125034;28;20720;-56
2022/08/04 04:32:51;;;;;;;3.40;2.03;;;;;;;;;;5122510;28;20039;-58
2022/08/04 04:35:25;;;;;;;2.53;2.10;;;;;;;;;;5125404;28;20169;-56
2022/08/04 04:37:54;;;;;;;5.25;2.45;;;;;;;;;;5124943;28;20438;-56
2022/08/04 04:40:31;;;;;;;9.50;2.35;;;;;;;;;;5122643;28;20118;-58
2022/08/04 04:43:28;;;;;;;2.50;2.00;;;;;;;;;;5123086;28;20123;-57
2022/08/04 04:45:56;;;;;;;5.25;2.92;;;;;;;;;;5062744;28;20072;-57
2022/08/04 04:48:22;;;;;;;19.55;3.45;;;;;;;;;;5124633;28;20508;-56
2022/08/04 04:50:50;;;;;;;3.95;2.47;;;;;;;;;;5124061;28;20039;-57
2022/08/04 04:53:34;;;;;;;2.67;2.33;;;;;;;;;;5122902;28;20065;-57
2022/08/04 04:56:06;;;;;;;3.15;2.22;;;;;;;;;;5124437;28;20066;-57
2022/08/04 04:58:32;;;;;;;4.65;3.88;;;;;;;;;;5124336;28;20100;-57
2022/08/04 05:01:17;;;;;;;7.50;2.60;;;;;;;;;;5125625;28;20112;-57
2022/08/04 05:03:52;;;;;;;5.88;1.55;;;;;;;;;;5124892;28;20453;-55
2022/08/04 05:06:24;;;;;;;6.32;2.75;;;;;;;;;;5124244;28;20493;-54
2022/08/04 05:09:06;;;;;;;4.20;1.98;;;;;;;;;;5123815;28;20043;-55
2022/08/04 05:11:48;;;;;;;6.60;1.33;;;;;;;;;;5123709;28;20076;-56
2022/08/04 05:14:24;;;;;;;3.20;2.47;;;;;;;;;;5124989;28;20050;-56
2022/08/04 05:17:07;;;;;;;4.45;2.78;;;;;;;;;;5124716;28;20083;-55
2022/08/04 05:19:40;;;;;;;5.43;2.40;;;;;;;;;;5122258;28;20043;-56
2022/08/04 05:22:10;;;;;;;4.65;2.58;;;;;;;;;;5121131;28;20043;-57
2022/08/04 05:24:42;;;;;;;12.03;2.53;;;;;;;;;;5125789;28;20058;-57
2022/08/04 05:27:16;;;;;;;7.55;2.47;;;;;;;;;;5125808;28;20065;-57
2022/08/04 05:29:52;;;;;;;4.07;3.45;;;;;;;;;;5125172;28;20501;-56
2022/08/04 05:32:19;;;;;;;8.45;2.78;;;;;;;;;;5124499;28;20084;-57
2022/08/04 05:34:48;;;;;;;14.10;3.08;;;;;;;;;;5124112;28;20043;-56
2022/08/04 05:37:18;;;;;;;5.05;3.08;;;;;;;;;;5124630;28;20134;-56
2022/08/04 05:40:02;;;;;;;4.80;3.03;;;;;;;;;;5126872;28;20046;-57
2022/08/04 05:42:29;;;;;;;7.45;3.35;;;;;;;;;;5128732;28;20103;-56
2022/08/04 05:44:55;;;;;;;4.97;2.35;;;;;;;;;;5127009;28;20039;-57
2022/08/04 05:47:20;;;;;;;2.50;2.30;;;;;;;;;;5128650;28;20397;-56
2022/08/04 05:49:46;;;;;;;5.15;3.75;;;;;;;;;;5125760;28;20093;-56
2022/08/04 05:52:12;;;;;;;7.97;2.25;;;;;;;;;;5127398;28;20050;-56
2022/08/04 05:54:39;;;;;;;22.67;3.83;;;;;;;;;;5126402;28;20031;-56
2022/08/04 05:57:05;;;;;;;8.50;3.45;;;;;;;;;;5127434;28;20070;-57
2022/08/04 05:59:31;;;;;;;2.95;2.65;;;;;;;;;;5125480;28;20063;-56
2022/08/04 06:01:57;;;;;;;11.63;2.95;;;;;;;;;;5128327;28;20061;-57
2022/08/04 06:04:35;;;;;;;15.93;3.17;;;;;;;;;;5127255;28;20083;-57
2022/08/04 06:07:00;;;;;;;14.50;3.90;;;;;;;;;;5126529;28;20043;-57
2022/08/04 06:09:26;;;;;;;1.77;1.45;;;;;;;;;;5128306;28;20035;-56
2022/08/04 06:11:52;;;;;;;6.55;2.97;;;;;;;;;;5128297;28;20569;-55
2022/08/04 06:14:20;;;;;;;8.60;2.28;;;;;;;;;;5128498;28;20047;-56
2022/08/04 06:16:48;;;;;;;9.35;2.95;;;;;;;;;;5123580;28;20160;-56
2022/08/04 06:19:14;;;;;;;10.55;3.05;;;;;;;;;;5127767;28;20501;-57
2022/08/04 06:21:47;;;;;;;8.57;4.32;;;;;;;;;;5127012;28;20138;-54
2022/08/04 06:24:14;;;;;;;19.33;3.28;;;;;;;;;;5107357;28;20054;-57
2022/08/04 06:26:41;;;;;;;4.30;3.15;;;;;;;;;;5127013;28;20054;-53
2022/08/04 06:29:16;;;;;;;5.25;3.58;;;;;;;;;;5126205;28;20157;-57
2022/08/04 06:31:45;;;;;;;8.23;5.85;;;;;;;;;;5124670;28;20066;-57
2022/08/04 06:34:12;;;;;;;42.28;21.50;;;;;;;;;;5127604;28;20050;-47
2022/08/04 06:36:39;;;;;;;42.15;33.63;;;;;;;;;;5126512;28;20046;-49
2022/08/04 06:39:05;;;;;;;55.40;39.75;;;;;;;;;;5125057;28;20451;-49
2022/08/04 06:41:31;;;;;;;63.38;42.47;;;;;;;;;;5126522;28;20058;-49
2022/08/04 06:44:04;;;;;;;63.00;35.50;;;;;;;;;;5126153;28;20852;-52
2022/08/04 06:46:31;;;;;;;44.28;32.95;;;;;;;;;;5126961;28;20409;-52
2022/08/04 06:48:56;;;;;;;48.28;41.78;;;;;;;;;;5126287;27;20045;-51
2022/08/04 06:51:22;;;;;;;75.60;36.33;;;;;;;;;;5127331;28;20141;-52
2022/08/04 06:53:47;;;;;;;42.53;25.75;;;;;;;;;;5126979;28;20043;-49
2022/08/04 06:56:17;;;;;;;36.95;23.77;;;;;;;;;;5127497;28;20043;-49
2022/08/04 06:58:44;;;;;;;23.38;20.60;;;;;;;;;;5121401;28;20050;-52
2022/08/04 07:01:10;;;;;;;32.13;20.08;;;;;;;;;;5124269;28;20518;-47
2022/08/04 07:03:36;;;;;;;25.48;16.58;;;;;;;;;;5126495;28;20047;-54
2022/08/04 07:06:01;;;;;;;25.00;15.02;;;;;;;;;;5125886;28;20541;-51
2022/08/04 07:08:27;;;;;;;15.82;11.95;;;;;;;;;;5123594;28;20038;-52
2022/08/04 07:10:53;;;;;;;16.45;7.53;;;;;;;;;;5125596;28;20050;-48
2022/08/04 07:13:19;;;;;;;11.60;5.93;;;;;;;;;;5126613;28;20090;-49
2022/08/04 07:15:46;;;;;;;11.80;6.03;;;;;;;;;;5124884;28;20145;-51
2022/08/04 07:18:11;;;;;;;8.43;4.78;;;;;;;;;;5126249;28;20486;-50
2022/08/04 07:20:39;;;;;;;17.98;7.35;;;;;;;;;;5126658;28;20111;-48
2022/08/04 07:23:05;;;;;;;12.43;9.18;;;;;;;;;;5127433;28;20069;-51
2022/08/04 07:25:32;;;;;;;8.20;3.78;;;;;;;;;;5127018;28;20042;-50
2022/08/04 07:27:57;;;;;;;20.10;4.75;;;;;;;;;;5125671;28;20490;-48
2022/08/04 07:30:24;;;;;;;7.53;6.25;;;;;;;;;;5127173;28;20070;-47
2022/08/04 07:32:49;;;;;;;13.73;6.13;;;;;;;;;;5125743;28;20599;-47
2022/08/04 07:35:16;;;;;;;10.25;6.03;;;;;;;;;;5125306;28;20157;-52
2022/08/04 07:37:42;;;;;;;6.95;5.32;;;;;;;;;;5125627;28;20114;-50
2022/08/04 07:40:07;;;;;;;6.60;4.20;;;;;;;;;;5126009;28;20059;-49
2022/08/04 07:42:33;;;;;;;4.55;3.83;;;;;;;;;;5126158;28;20039;-52
2022/08/04 07:44:59;;;;;;;6.32;4.50;;;;;;;;;;5124998;28;20130;-53
2022/08/04 07:47:26;;;;;;;2.85;1.80;;;;;;;;;;5122630;28;20512;-52
2022/08/04 07:49:51;;;;;;;20.42;3.17;;;;;;;;;;5126396;28;20451;-47
2022/08/04 07:52:17;;;;;;;2.80;1.33;;;;;;;;;;5127023;28;20050;-46
2022/08/04 07:54:42;;;;;;;2.92;1.80;;;;;;;;;;5126445;28;20084;-43
2022/08/04 07:57:08;;;;;;;7.47;2.35;;;;;;;;;;5125620;28;20042;-43
2022/08/04 07:59:34;;;;;;;2.15;1.45;;;;;;;;;;5124817;27;20545;-47
2022/08/04 08:02:00;;;;;;;13.10;1.15;;;;;;;;;;5124698;28;20035;-47
2022/08/04 08:04:25;;;;;;;1.50;1.05;;;;;;;;;;5124448;28;20037;-47
2022/08/04 08:06:51;;;;;;;8.65;1.42;;;;;;;;;;5126098;28;20031;-48
2022/08/04 08:09:17;;;;;;;2.47;1.45;;;;;;;;;;5125655;28;20071;-50
2022/08/04 08:11:44;;;;;;;3.72;1.70;;;;;;;;;;5125663;28;20085;-50
2022/08/04 08:14:09;;;;;;;2.28;1.52;;;;;;;;;;5125555;28;20063;-52
2022/08/04 08:16:35;;;;;;;1.90;0.80;;;;;;;;;;5123862;28;20171;-53
2022/08/04 08:19:01;;;;;;;2.13;1.40;;;;;;;;;;5126349;28;20077;-48
2022/08/04 08:21:26;;;;;;;5.57;2.65;;;;;;;;;;5125108;28;20054;-48
2022/08/04 08:23:52;;;;;;;6.45;3.53;;;;;;;;;;5122958;28;20436;-47
2022/08/04 08:26:17;;;;;;;7.38;2.88;;;;;;;;;;5123097;28;20577;-50
2022/08/04 08:28:43;;;;;;;5.03;2.60;;;;;;;;;;5124099;28;20047;-45
2022/08/04 08:31:08;;;;;;;13.13;2.83;;;;;;;;;;5124265;28;20107;-50
2022/08/04 08:33:34;;;;;;;13.80;3.28;;;;;;;;;;5125375;28;20043;-46
2022/08/04 08:36:06;;;;;;;12.13;4.65;;;;;;;;;;5125203;28;20045;-50
2022/08/04 08:38:32;;;;;;;18.95;2.17;;;;;;;;;;5124978;28;20101;-52
2022/08/04 08:41:09;;;;;;;14.48;1.65;;;;;;;;;;5125269;28;20806;-47
2022/08/04 08:43:44;;;;;;;15.00;1.50;;;;;;;;;;5120140;28;20031;-47
2022/08/04 08:46:09;;;;;;;11.40;2.25;;;;;;;;;;5122130;28;20055;-48
2022/08/04 08:48:37;;;;;;;15.80;2.05;;;;;;;;;;5123765;28;20143;-52
2022/08/04 08:51:23;;;;;;;2.70;1.88;;;;;;;;;;5123361;28;20055;-49
2022/08/04 08:53:59;;;;;;;3.50;1.63;;;;;;;;;;5123675;28;20050;-47
2022/08/04 08:56:31;;;;;;;5.63;1.20;;;;;;;;;;5102879;28;20039;-49
2022/08/04 08:59:03;;;;;;;2.63;1.55;;;;;;;;;;5125185;28;20105;-47
2022/08/04 09:01:34;;;;;;;4.22;1.55;;;;;;;;;;5123238;28;20051;-47
2022/08/04 09:04:18;;;;;;;4.07;2.05;;;;;;;;;;5124180;28;20055;-47
2022/08/04 09:06:43;;;;;;;1.90;1.30;;;;;;;;;;5124151;28;20039;-46
2022/08/04 09:09:08;;;;;;;2.20;1.45;;;;;;;;;;5124786;28;20554;-50
2022/08/04 09:11:39;;;;;;;2.45;1.40;;;;;;;;;;5127130;27;20043;-50
2022/08/04 09:14:07;;;;;;;5.95;1.00;;;;;;;;;;5128408;28;20042;-48
2022/08/04 09:16:41;;;;;;;9.95;2.33;;;;;;;;;;5128537;28;20046;-49
2022/08/04 09:19:22;;;;;;;1.25;1.10;;;;;;;;;;5127651;28;20051;-52
2022/08/04 09:21:57;;;;;;;3.05;1.48;;;;;;;;;;5126299;28;20051;-46
2022/08/04 09:24:28;;;;;;;2.25;1.35;;;;;;;;;;5127909;28;20622;-48
2022/08/04 09:26:56;;;;;;;7.55;1.55;;;;;;;;;;5128822;28;20047;-52
2022/08/04 09:29:24;;;;;;;1.27;0.82;;;;;;;;;;5126540;28;20058;-49
2022/08/04 09:31:50;;;;;;;2.08;1.27;;;;;;;;;;5128462;28;20130;-50
2022/08/04 09:34:22;;;;;;;12.18;1.38;;;;;;;;;;5128589;28;20126;-50
2022/08/04 09:36:55;;;;;;;6.45;4.63;;;;;;;;;;5128596;28;20074;-51
2022/08/04 09:39:45;;;;;;;1.63;1.13;;;;;;;;;;5127273;28;20039;-51
2022/08/04 09:42:28;;;;;;;1.70;0.93;;;;;;;;;;5127308;28;20073;-48
2022/08/04 09:44:56;;;;;;;2.45;1.30;;;;;;;;;;5126740;28;20043;-49
2022/08/04 09:47:37;;;;;;;2.30;1.63;;;;;;;;;;5127398;28;20047;-48
2022/08/04 09:50:08;;;;;;;1.40;1.10;;;;;;;;;;5127127;28;20053;-50
2022/08/04 09:52:51;;;;;;;2.65;1.38;;;;;;;;;;5127126;28;20721;-51
2022/08/04 09:55:16;;;;;;;2.83;1.48;;;;;;;;;;5128167;28;20043;-52
2022/08/04 09:57:54;;;;;;;2.08;1.30;;;;;;;;;;5128177;28;20500;-48
2022/08/04 10:00:20;;;;;;;7.38;1.23;;;;;;;;;;5126223;28;20085;-49
2022/08/04 10:02:49;;;;;;;11.48;1.48;;;;;;;;;;5127017;28;20160;-50
2022/08/04 10:05:19;;;;;;;1.00;0.82;;;;;;;;;;5126584;28;20043;-47
2022/08/04 10:07:56;;;;;;;2.22;1.00;;;;;;;;;;5126795;28;20066;-49
2022/08/04 10:10:25;;;;;;;1.85;0.85;;;;;;;;;;5127237;28;20050;-50
2022/08/04 10:13:09;;;;;;;1.17;0.90;;;;;;;;;;5128239;28;20490;-46
2022/08/04 10:15:53;;;;;;;3.28;0.93;;;;;;;;;;5127361;28;20074;-52
2022/08/04 10:18:32;;;;;;;2.83;1.05;;;;;;;;;;5126291;28;20116;-52
2022/08/04 10:21:09;;;;;;;3.87;1.70;;;;;;;;;;5125510;28;20054;-52
2022/08/04 10:23:37;;;;;;;1.52;0.85;;;;;;;;;;5124873;28;20047;-54
2022/08/04 10:26:14;;;;;;;4.10;1.00;;;;;;;;;;5127787;28;20035;-54
2022/08/04 10:28:45;;;;;;;1.42;0.82;;;;;;;;;;5127532;28;20036;-53
2022/08/04 10:31:14;;;;;;;3.80;1.42;;;;;;;;;;5125434;28;20118;-52
2022/08/04 10:33:51;;;;;;;1.63;0.80;;;;;;;;;;5126683;28;20069;-54
2022/08/04 10:36:20;;;;;;;2.10;1.13;;;;;;;;;;5126044;28;20136;-51
2022/08/04 10:38:51;;;;;;;4.88;1.10;;;;;;;;;;5127415;28;20180;-53
2022/08/04 10:41:35;;;;;;;3.70;1.35;;;;;;;;;;5126187;28;20043;-51
2022/08/04 10:44:00;;;;;;;2.15;0.90;;;;;;;;;;5124430;28;20126;-52
2022/08/04 10:46:30;;;;;;;8.07;1.10;;;;;;;;;;5125788;28;20133;-49
2022/08/04 10:48:57;;;;;;;5.40;2.08;;;;;;;;;;5126645;28;20050;-50
2022/08/04 10:51:27;;;;;;;5.30;2.15;;;;;;;;;;5126939;28;20051;-53
2022/08/04 10:53:57;;;;;;;0.98;0.52;;;;;;;;;;5123743;28;20847;-52
2022/08/04 10:56:40;;;;;;;0.68;0.60;;;;;;;;;;5122451;28;20286;-54
2022/08/04 10:59:09;;;;;;;1.08;0.70;;;;;;;;;;5127579;28;20134;-53
2022/08/04 11:01:37;;;;;;;3.65;1.40;;;;;;;;;;5124784;28;20129;-50
2022/08/04 11:04:08;;;;;;;3.33;1.27;;;;;;;;;;5126615;28;20500;-51
2022/08/04 11:06:35;;;;;;;1.45;1.05;;;;;;;;;;5126740;28;20039;-52
2022/08/04 11:09:02;;;;;;;2.35;1.20;;;;;;;;;;5127134;28;20431;-54
2022/08/04 11:11:45;;;;;;;1.42;0.93;;;;;;;;;;5126358;28;20047;-52
2022/08/04 11:14:12;;;;;;;2.60;1.52;;;;;;;;;;5125502;28;20130;-52
2022/08/04 11:16:43;;;;;;;1.45;0.85;;;;;;;;;;5126395;28;20137;-51
2022/08/04 11:19:14;;;;;;;5.15;1.02;;;;;;;;;;5125556;28;20051;-52
2022/08/04 11:21:42;;;;;;;0.88;0.60;;;;;;;;;;5124475;28;20041;-52
2022/08/04 11:24:14;;;;;;;2.42;0.70;;;;;;;;;;5125608;28;20032;-53
2022/08/04 11:26:46;;;;;;;1.05;0.70;;;;;;;;;;5126659;28;20118;-55
2022/08/04 11:29:32;;;;;;;2.33;1.33;;;;;;;;;;5125773;28;20501;-49
2022/08/04 11:31:58;;;;;;;1.70;0.93;;;;;;;;;;5072379;28;20039;-49
2022/08/04 11:34:24;;;;;;;1.30;0.65;;;;;;;;;;5124229;27;20067;-53
2022/08/04 11:36:50;;;;;;;0.93;0.40;;;;;;;;;;5125868;28;20096;-51
2022/08/04 11:39:27;;;;;;;1.17;0.80;;;;;;;;;;5126572;28;20043;-51
2022/08/04 11:41:53;;;;;;;0.90;0.70;;;;;;;;;;5125206;28;20691;-47
2022/08/04 11:44:24;;;;;;;7.45;0.75;;;;;;;;;;5126581;28;20035;-52
2022/08/04 11:46:52;;;;;;;7.57;1.20;;;;;;;;;;5122955;28;20046;-53
2022/08/04 11:49:20;;;;;;;3.20;1.60;;;;;;;;;;5127009;28;20055;-51
2022/08/04 11:51:46;;;;;;;2.45;1.00;;;;;;;;;;5126797;28;20046;-52
2022/08/04 11:54:12;;;;;;;2.22;0.88;;;;;;;;;;5124273;28;20124;-53
2022/08/04 11:56:38;;;;;;;1.35;0.75;;;;;;;;;;5124753;28;20737;-50
2022/08/04 11:59:06;;;;;;;0.63;0.50;;;;;;;;;;5123970;28;20043;-47
2022/08/04 12:01:41;;;;;;;1.17;0.80;;;;;;;;;;5124931;28;20122;-51
2022/08/04 12:04:15;;;;;;;1.63;0.85;;;;;;;;;;5125703;28;20039;-46
2022/08/04 12:06:51;;;;;;;0.73;0.52;;;;;;;;;;5123958;28;20047;-53
2022/08/04 12:09:21;;;;;;;0.73;0.73;;;;;;;;;;5123929;28;20063;-53
2022/08/04 12:11:49;;;;;;;1.55;0.65;;;;;;;;;;5125751;28;20072;-51
2022/08/04 12:14:24;;;;;;;1.77;0.85;;;;;;;;;;5126695;28;20116;-52
2022/08/04 12:16:58;;;;;;;1.98;0.77;;;;;;;;;;5125379;28;20035;-49
2022/08/04 12:19:39;;;;;;;1.60;1.15;;;;;;;;;;5126386;28;20091;-49
2022/08/04 12:22:09;;;;;;;6.28;0.70;;;;;;;;;;5125569;28;20533;-47
2022/08/04 12:24:44;;;;;;;3.37;1.10;;;;;;;;;;5126250;28;20429;-53
2022/08/04 12:27:12;;;;;;;6.75;0.80;;;;;;;;;;5122826;28;20475;-50
2022/08/04 12:29:39;;;;;;;2.95;1.30;;;;;;;;;;5124401;28;20042;-49
2022/08/04 12:32:17;;;;;;;0.55;0.55;;;;;;;;;;5125626;28;20105;-50
2022/08/04 12:34:46;;;;;;;2.22;0.73;;;;;;;;;;5125275;28;20050;-52
2022/08/04 12:37:15;;;;;;;1.42;0.75;;;;;;;;;;5125455;28;20039;-47
2022/08/04 12:39:43;;;;;;;1.50;0.70;;;;;;;;;;5125267;28;20131;-50
2022/08/04 12:42:32;;;;;;;2.85;1.05;;;;;;;;;;5125300;28;20031;-50
2022/08/04 12:44:58;;;;;;;1.23;0.85;;;;;;;;;;5125401;28;20827;-51
2022/08/04 12:47:24;;;;;;;0.57;0.45;;;;;;;;;;5127347;27;20055;-50
2022/08/04 12:49:51;;;;;;;9.10;1.05;;;;;;;;;;5128081;28;20089;-51
2022/08/04 12:52:17;;;;;;;1.67;0.93;;;;;;;;;;5128761;28;20142;-50
2022/08/04 12:54:44;;;;;;;2.15;1.55;;;;;;;;;;5127746;28;20042;-48
2022/08/04 12:57:10;;;;;;;1.40;0.90;;;;;;;;;;5128961;28;20375;-50
2022/08/04 12:59:53;;;;;;;1.10;0.88;;;;;;;;;;5129787;28;20611;-48
2022/08/04 13:02:25;;;;;;;1.33;0.80;;;;;;;;;;5129196;28;20051;-50
2022/08/04 13:04:51;;;;;;;0.98;0.50;;;;;;;;;;5127386;28;20219;-48
2022/08/04 13:07:22;;;;;;;0.47;0.45;;;;;;;;;;5127348;28;20039;-50
2022/08/04 13:09:48;;;;;;;1.15;0.80;;;;;;;;;;5127049;28;20061;-50
2022/08/04 13:12:15;;;;;;;3.85;1.42;;;;;;;;;;5128237;28;20150;-48
2022/08/04 13:14:44;;;;;;;1.10;0.68;;;;;;;;;;5126827;28;20031;-51
2022/08/04 13:17:09;;;;;;;3.70;1.05;;;;;;;;;;5127594;28;20055;-47
2022/08/04 13:19:35;;;;;;;2.97;1.00;;;;;;;;;;5128899;28;20495;-51
2022/08/04 13:22:01;;;;;;;2.05;1.50;;;;;;;;;;5129197;28;20071;-49
2022/08/04 13:24:27;;;;;;;1.83;1.17;;;;;;;;;;5125102;28;20043;-46
2022/08/04 13:26:57;;;;;;;1.10;0.73;;;;;;;;;;5127767;28;20031;-47
2022/08/04 13:29:25;;;;;;;2.65;1.52;;;;;;;;;;5126680;28;20481;-45
2022/08/04 13:31:51;;;;;;;2.60;1.52;;;;;;;;;;5127307;28;20047;-50
2022/08/04 13:34:18;;;;;;;1.88;1.05;;;;;;;;;;5127967;28;20126;-49
2022/08/04 13:36:44;;;;;;;0.98;0.50;;;;;;;;;;5129246;28;20054;-49
2022/08/04 13:39:17;;;;;;;1.67;1.38;;;;;;;;;;5128419;28;20047;-49
2022/08/04 13:41:45;;;;;;;0.85;0.63;;;;;;;;;;5126934;28;20043;-51
2022/08/04 13:44:11;;;;;;;1.55;0.70;;;;;;;;;;5128788;28;20135;-49
2022/08/04 13:46:43;;;;;;;1.85;0.88;;;;;;;;;;5128732;28;20126;-51
2022/08/04 13:49:11;;;;;;;4.47;3.38;;;;;;;;;;5127629;28;20097;-51
2022/08/04 13:51:38;;;;;;;3.85;3.33;;;;;;;;;;5127219;28;20039;-52
2022/08/04 13:54:04;;;;;;;4.93;1.70;;;;;;;;;;5128842;28;20412;-51
2022/08/04 13:56:37;;;;;;;1.63;1.13;;;;;;;;;;5127325;28;20130;-50
2022/08/04 13:59:03;;;;;;;2.65;1.98;;;;;;;;;;5125978;27;20108;-52
2022/08/04 14:01:29;;;;;;;0.65;0.43;;;;;;;;;;5109186;28;20201;-47
2022/08/04 14:04:00;;;;;;;4.68;1.10;;;;;;;;;;5129092;28;20673;-50
2022/08/04 14:06:28;;;;;;;1.75;1.52;;;;;;;;;;5124815;28;20085;-52
2022/08/04 14:08:58;;;;;;;1.27;0.75;;;;;;;;;;5126623;28;20561;-47
2022/08/04 14:11:30;;;;;;;1.90;1.45;;;;;;;;;;5128567;28;20046;-51
2022/08/04 14:13:56;;;;;;;1.73;1.05;;;;;;;;;;5128506;28;20067;-48
2022/08/04 14:16:21;;;;;;;3.15;1.42;;;;;;;;;;5128528;28;20055;-49
2022/08/04 14:18:56;;;;;;;1.38;0.90;;;;;;;;;;5127699;28;20092;-52
2022/08/04 14:21:21;;;;;;;2.70;1.80;;;;;;;;;;5128430;28;20051;-49
2022/08/04 14:23:50;;;;;;;2.17;0.73;;;;;;;;;;5128076;28;20043;-51
2022/08/04 14:26:31;;;;;;;4.22;1.00;;;;;;;;;;5126507;28;20050;-52
2022/08/04 14:29:05;;;;;;;2.08;1.42;;;;;;;;;;5125912;28;20039;-46
2022/08/04 14:31:31;;;;;;;4.47;2.70;;;;;;;;;;5128657;28;20444;-51
2022/08/04 14:33:56;;;;;;;1.60;1.25;;;;;;;;;;5127836;28;20064;-52
2022/08/04 14:36:21;;;;;;;0.63;0.40;;;;;;;;;;5128193;28;20573;-52
2022/08/04 14:38:52;;;;;;;0.60;0.30;;;;;;;;;;5126982;28;20779;-49
2022/08/04 14:41:19;;;;;;;2.17;1.15;;;;;;;;;;5125312;28;20039;-48
2022/08/04 14:43:51;;;;;;;3.13;1.42;;;;;;;;;;5127184;28;20058;-46
2022/08/04 14:46:17;;;;;;;1.13;0.90;;;;;;;;;;5122817;28;20204;-45
2022/08/04 14:49:02;;;;;;;3.10;1.30;;;;;;;;;;5128335;28;20039;-46
2022/08/04 14:51:27;;;;;;;5.53;1.38;;;;;;;;;;5126983;28;20035;-47
2022/08/04 14:53:53;;;;;;;1.90;0.63;;;;;;;;;;5127715;28;20088;-49
2022/08/04 14:56:18;;;;;;;1.17;0.68;;;;;;;;;;5126039;28;20158;-52
2022/08/04 14:58:43;;;;;;;2.03;0.95;;;;;;;;;;5126778;28;20047;-48
2022/08/04 15:01:10;;;;;;;1.13;0.80;;;;;;;;;;5128045;28;20138;-48